Time;durP1;ratioP1;P1;durP2;ratioP2;P2;SDS_P1;SDS_P2;PMS_P1;PMS_P2;Temp;Humidity;BMP_temperature;BMP_pressure;BME280_temperature;BME280_humidity;BME280_pressure;Samples;Min_cycle;Max_cycle;Signal;HPM_P1;HPM_P2
2022/07/15 00:00:25;;;;;;;3.27;2.20;;;21.10;75.90;;;;;;1904876;75;21029;-62
2022/07/15 00:02:55;;;;;;;2.80;2.17;;;21.00;76.50;;;;;;1904839;75;21046;-62
2022/07/15 00:05:24;;;;;;;3.70;2.22;;;21.00;76.60;;;;;;1904943;74;21098;-62
2022/07/15 00:07:54;;;;;;;3.08;2.33;;;21.00;76.40;;;;;;1904949;75;21001;-62
2022/07/15 00:10:23;;;;;;;3.85;1.82;;;21.10;76.60;;;;;;1904980;74;21103;-62
2022/07/15 00:12:58;;;;;;;3.35;2.00;;;21.10;76.80;;;;;;1904996;75;21045;-61
2022/07/15 00:15:30;;;;;;;3.50;2.10;;;21.10;76.70;;;;;;1904853;75;21021;-61
2022/07/15 00:18:03;;;;;;;2.17;1.95;;;21.20;76.60;;;;;;1904801;75;21119;-61
2022/07/15 00:20:37;;;;;;;2.10;1.90;;;21.20;76.60;;;;;;1904782;75;21014;-61
2022/07/15 00:23:04;;;;;;;5.28;1.80;;;21.30;76.50;;;;;;1904004;75;21573;-62
2022/07/15 00:25:33;;;;;;;4.17;2.10;;;21.40;76.60;;;;;;1904293;74;21463;-62
2022/07/15 00:28:05;;;;;;;3.27;2.30;;;21.40;76.40;;;;;;1904778;75;21013;-61
2022/07/15 00:30:40;;;;;;;3.37;2.40;;;21.50;76.30;;;;;;1904758;75;20989;-62
2022/07/15 00:33:11;;;;;;;4.40;2.17;;;21.50;76.00;;;;;;1904425;75;21183;-62
2022/07/15 00:35:41;;;;;;;2.77;2.08;;;21.40;75.80;;;;;;1904691;75;21049;-62
2022/07/15 00:38:11;;;;;;;4.37;2.00;;;21.40;76.40;;;;;;1904733;74;21095;-62
2022/07/15 00:40:46;;;;;;;4.10;1.87;;;21.40;76.60;;;;;;1904731;75;21095;-62
2022/07/15 00:43:19;;;;;;;2.55;2.12;;;21.50;76.60;;;;;;1904710;75;21460;-62
2022/07/15 00:45:49;;;;;;;2.67;2.20;;;21.50;76.60;;;;;;1904980;74;21109;-62
2022/07/15 00:48:18;;;;;;;2.55;2.33;;;21.50;76.20;;;;;;1904058;74;21029;-61
2022/07/15 00:50:48;;;;;;;2.55;2.10;;;21.50;76.00;;;;;;1901215;74;21005;-62
2022/07/15 00:53:20;;;;;;;2.15;1.95;;;21.50;76.40;;;;;;1901188;74;21030;-62
2022/07/15 00:55:51;;;;;;;2.75;2.12;;;21.50;76.60;;;;;;1900994;74;21487;-62
2022/07/15 00:58:28;;;;;;;2.70;2.30;;;21.50;76.60;;;;;;1900980;75;21111;-62
2022/07/15 01:00:55;;;;;;;2.75;1.80;;;21.50;76.40;;;;;;1899992;75;21013;-62
2022/07/15 01:03:26;;;;;;;2.50;2.30;;;21.50;76.60;;;;;;1901016;75;21095;-62
2022/07/15 01:05:57;;;;;;;2.83;2.42;;;21.50;76.40;;;;;;1900984;74;20978;-62
2022/07/15 01:08:26;;;;;;;3.47;2.17;;;21.50;76.30;;;;;;1901000;74;20974;-62
2022/07/15 01:10:56;;;;;;;3.10;2.20;;;21.40;76.30;;;;;;1901049;75;21021;-62
2022/07/15 01:13:26;;;;;;;4.17;2.40;;;21.40;76.20;;;;;;1901169;74;21030;-61
2022/07/15 01:15:55;;;;;;;2.75;2.15;;;21.30;76.50;;;;;;1900888;75;21025;-61
2022/07/15 01:18:26;;;;;;;4.37;2.10;;;21.30;76.90;;;;;;1900947;74;21480;-61
2022/07/15 01:20:55;;;;;;;4.22;2.00;;;21.30;77.10;;;;;;1901027;74;21029;-62
2022/07/15 01:23:25;;;;;;;2.33;2.12;;;21.30;77.10;;;;;;1901050;75;21014;-61
2022/07/15 01:26:06;;;;;;;4.90;1.92;;;21.40;76.70;;;;;;1900471;75;21116;-61
2022/07/15 01:28:36;;;;;;;3.00;1.82;;;21.30;76.90;;;;;;1901002;75;21006;-61
2022/07/15 01:31:05;;;;;;;2.80;2.40;;;21.30;76.90;;;;;;1900959;74;21025;-61
2022/07/15 01:33:38;;;;;;;3.72;2.77;;;21.30;76.90;;;;;;1901084;75;20985;-61
2022/07/15 01:39:03;;;;;;;2.65;2.35;;;21.30;76.40;;;;;;1832127;76;21063;-62
2022/07/15 01:41:32;;;;;;;5.67;2.67;;;21.30;76.40;;;;;;1832016;78;21122;-62
2022/07/15 01:44:02;;;;;;;3.98;3.12;;;21.30;76.50;;;;;;1832044;78;21052;-62
2022/07/15 01:46:32;;;;;;;7.70;4.72;;;21.30;76.90;;;;;;1832004;78;21110;-62
2022/07/15 01:51:51;;;;;;;9.58;5.72;;;21.30;76.80;;;;;;1831689;78;21189;-61
2022/07/15 01:54:21;;;;;;;12.37;6.15;;;21.30;76.40;;;;;;1831315;78;21043;-61
2022/07/15 01:56:51;;;;;;;9.55;6.83;;;21.30;76.30;;;;;;1832090;78;21024;-62
2022/07/15 01:59:25;;;;;;;7.03;5.37;;;21.20;76.00;;;;;;1832192;78;21119;-62
2022/07/15 02:01:57;;;;;;;6.97;4.70;;;21.20;76.30;;;;;;1832277;78;21087;-62
2022/07/15 02:04:27;;;;;;;6.53;4.40;;;21.10;76.60;;;;;;1832174;78;21341;-61
2022/07/15 02:06:56;;;;;;;6.40;3.72;;;21.10;77.00;;;;;;1832047;78;21048;-61
2022/07/15 02:09:27;;;;;;;3.83;3.02;;;21.00;76.90;;;;;;1832062;77;21051;-61
2022/07/15 02:11:57;;;;;;;4.40;2.90;;;21.00;76.80;;;;;;1832145;78;21048;-61
2022/07/15 02:14:28;;;;;;;4.55;2.83;;;21.00;76.90;;;;;;1832192;78;21060;-62
2022/07/15 02:16:59;;;;;;;3.37;2.45;;;20.90;77.00;;;;;;1831693;78;21130;-61
2022/07/15 02:19:30;;;;;;;3.12;2.42;;;20.90;77.20;;;;;;1831847;78;21083;-62
2022/07/15 02:22:00;;;;;;;4.72;2.67;;;20.90;77.30;;;;;;1832082;78;21091;-62
2022/07/15 02:24:31;;;;;;;3.45;2.37;;;20.90;77.10;;;;;;1831946;77;21088;-62
2022/07/15 02:27:00;;;;;;;4.42;2.67;;;20.90;77.20;;;;;;1832055;77;21068;-62
2022/07/15 02:29:30;;;;;;;6.97;2.50;;;20.90;77.30;;;;;;1832060;78;21080;-62
2022/07/15 02:31:59;;;;;;;4.35;2.70;;;21.00;77.40;;;;;;1832168;78;21110;-62
2022/07/15 02:34:29;;;;;;;4.97;3.05;;;21.00;77.00;;;;;;1832106;78;21040;-62
2022/07/15 02:36:58;;;;;;;4.40;2.60;;;21.00;76.30;;;;;;1831997;76;21044;-59
2022/07/15 02:39:28;;;;;;;3.02;2.65;;;20.90;76.30;;;;;;1832186;78;21048;-62
2022/07/15 02:41:58;;;;;;;8.88;2.90;;;20.70;76.60;;;;;;1832153;78;21040;-61
2022/07/15 02:44:28;;;;;;;5.12;2.30;;;20.70;77.00;;;;;;1832178;78;21020;-61
2022/07/15 02:46:58;;;;;;;4.80;2.20;;;20.60;77.00;;;;;;1832081;78;21028;-61
2022/07/15 02:49:29;;;;;;;7.17;2.40;;;20.60;76.80;;;;;;1831975;78;21129;-61
2022/07/15 02:51:59;;;;;;;2.15;1.82;;;20.70;76.80;;;;;;1832198;78;21569;-61
2022/07/15 02:54:29;;;;;;;3.85;2.20;;;20.70;77.00;;;;;;1832008;78;21445;-61
2022/07/15 02:56:59;;;;;;;3.10;2.10;;;20.80;77.40;;;;;;1831931;78;21024;-61
2022/07/15 02:59:29;;;;;;;3.75;2.50;;;20.90;77.20;;;;;;1832030;77;21134;-61
2022/07/15 03:01:59;;;;;;;5.40;2.17;;;21.00;77.20;;;;;;1832074;78;21056;-61
2022/07/15 03:04:28;;;;;;;2.70;2.15;;;21.10;77.00;;;;;;1831991;78;21051;-61
2022/07/15 03:06:58;;;;;;;3.27;2.42;;;21.30;76.90;;;;;;1832033;78;21100;-61
2022/07/15 03:09:27;;;;;;;2.75;2.30;;;21.40;76.90;;;;;;1832022;78;21048;-62
2022/07/15 03:11:57;;;;;;;7.28;2.80;;;21.50;76.80;;;;;;1832034;78;21122;-62
2022/07/15 03:14:27;;;;;;;4.37;2.30;;;21.60;76.60;;;;;;1831950;78;21056;-62
2022/07/15 03:16:56;;;;;;;5.90;3.10;;;21.70;76.50;;;;;;1831999;78;21056;-62
2022/07/15 03:19:26;;;;;;;7.83;2.55;;;21.80;76.20;;;;;;1832170;78;21157;-62
2022/07/15 03:21:56;;;;;;;2.67;2.17;;;21.90;76.00;;;;;;1832025;78;21052;-62
2022/07/15 03:24:26;;;;;;;5.22;2.30;;;22.00;75.50;;;;;;1832153;78;21063;-62
2022/07/15 03:26:58;;;;;;;2.72;2.10;;;22.00;75.20;;;;;;1832013;77;21102;-62
2022/07/15 03:29:28;;;;;;;6.83;2.20;;;22.00;75.10;;;;;;1832040;78;21048;-61
2022/07/15 03:31:58;;;;;;;3.08;1.92;;;21.90;75.10;;;;;;1832037;78;21047;-61
2022/07/15 03:34:28;;;;;;;3.80;1.90;;;21.80;75.40;;;;;;1832076;78;21143;-61
2022/07/15 03:36:59;;;;;;;6.08;3.20;;;21.90;75.90;;;;;;1832102;77;21114;-61
2022/07/15 03:39:28;;;;;;;2.62;1.90;;;22.10;75.90;;;;;;1841630;77;21462;-61
2022/07/15 03:41:57;;;;;;;3.27;2.25;;;22.30;75.30;;;;;;1843801;78;20996;-61
2022/07/15 03:44:27;;;;;;;3.35;1.87;;;22.50;75.70;;;;;;1843819;77;21097;-61
2022/07/15 03:46:58;;;;;;;3.67;1.90;;;22.70;75.40;;;;;;1843795;78;21133;-61
2022/07/15 03:49:27;;;;;;;2.40;2.20;;;22.90;75.30;;;;;;1843765;78;21086;-62
2022/07/15 03:51:57;;;;;;;3.45;2.10;;;23.10;74.40;;;;;;1843721;77;21023;-62
2022/07/15 03:54:28;;;;;;;5.78;2.05;;;23.30;74.10;;;;;;1843725;78;21016;-62
2022/07/15 03:56:57;;;;;;;6.05;2.58;;;23.50;73.80;;;;;;1843782;78;21134;-62
2022/07/15 03:59:27;;;;;;;2.25;2.05;;;23.60;73.40;;;;;;1843849;78;21082;-62
2022/07/15 04:01:56;;;;;;;5.67;2.27;;;23.80;73.00;;;;;;1843778;78;21081;-63
2022/07/15 04:04:26;;;;;;;5.08;1.98;;;23.90;72.40;;;;;;1843894;78;20999;-63
2022/07/15 04:06:55;;;;;;;5.70;2.30;;;24.00;71.90;;;;;;1843758;77;21086;-63
2022/07/15 04:09:25;;;;;;;4.15;2.22;;;24.10;71.60;;;;;;1843801;78;20996;-63
2022/07/15 04:11:55;;;;;;;10.53;3.77;;;24.10;71.20;;;;;;1843730;76;21101;-62
2022/07/15 04:14:24;;;;;;;7.62;3.45;;;24.20;71.00;;;;;;1843718;77;21036;-62
2022/07/15 04:16:53;;;;;;;10.55;4.85;;;24.20;70.70;;;;;;1843822;78;20991;-62
2022/07/15 04:19:31;;;;;;;9.28;4.45;;;24.20;70.60;;;;;;1843871;77;21008;-62
2022/07/15 04:22:01;;;;;;;14.75;4.92;;;24.20;70.60;;;;;;1843758;78;21442;-62
2022/07/15 04:24:32;;;;;;;10.30;4.22;;;24.10;70.70;;;;;;1843817;77;21071;-62
2022/07/15 04:27:02;;;;;;;5.22;3.45;;;24.20;70.90;;;;;;1843840;78;21027;-62
2022/07/15 04:29:31;;;;;;;5.70;3.10;;;24.20;70.90;;;;;;1843830;78;21090;-62
2022/07/15 04:32:00;;;;;;;5.05;3.87;;;24.30;70.80;;;;;;1843879;78;21059;-62
2022/07/15 04:34:31;;;;;;;13.83;5.67;;;24.40;70.60;;;;;;1843511;77;21103;-62
2022/07/15 04:37:01;;;;;;;7.33;3.85;;;24.50;70.10;;;;;;1843623;78;21011;-62
2022/07/15 04:39:32;;;;;;;6.85;3.92;;;24.50;70.00;;;;;;1828406;77;21523;-61
2022/07/15 04:42:02;;;;;;;6.03;3.50;;;24.60;69.90;;;;;;1817539;79;21053;-61
2022/07/15 04:44:35;;;;;;;4.40;2.62;;;24.50;69.70;;;;;;1817591;78;21062;-61
2022/07/15 04:47:09;;;;;;;4.00;2.90;;;24.60;69.80;;;;;;1952694;72;21123;-61
2022/07/15 04:52:30;;;;;;;5.87;2.72;;;24.60;69.70;;;;;;1956801;72;21056;-60
2022/07/15 04:54:58;;;;;;;5.00;2.70;;;24.60;69.60;;;;;;1956682;72;21475;-61
2022/07/15 04:57:28;;;;;;;3.17;2.42;;;24.60;70.00;;;;;;1956759;73;21025;-61
2022/07/15 04:59:58;;;;;;;4.45;2.70;;;24.50;70.20;;;;;;1956723;72;21416;-61
2022/07/15 05:02:28;;;;;;;5.85;2.52;;;24.40;70.40;;;;;;1935907;73;21064;-60
2022/07/15 05:04:57;;;;;;;19.92;5.05;;;24.40;70.80;;;;;;1956725;72;21090;-60
2022/07/15 05:07:27;;;;;;;4.47;2.02;;;24.40;71.00;;;;;;1956777;72;21009;-60
2022/07/15 05:09:56;;;;;;;3.20;2.87;;;24.50;71.00;;;;;;1956725;72;21016;-61
2022/07/15 05:12:25;;;;;;;4.03;2.87;;;24.40;70.70;;;;;;1956650;73;21173;-60
2022/07/15 05:14:56;;;;;;;5.33;2.60;;;24.40;71.00;;;;;;1956619;72;21087;-61
2022/07/15 05:17:26;;;;;;;5.62;2.40;;;24.50;71.50;;;;;;1956698;72;21009;-61
2022/07/15 05:19:56;;;;;;;4.00;2.40;;;24.60;71.40;;;;;;1956779;73;21082;-61
2022/07/15 05:22:25;;;;;;;8.90;2.80;;;24.70;71.10;;;;;;1956684;72;21005;-61
2022/07/15 05:24:55;;;;;;;5.95;2.72;;;24.90;71.10;;;;;;1956761;72;21150;-60
2022/07/15 05:27:25;;;;;;;5.70;2.25;;;25.00;70.60;;;;;;1956661;72;21017;-61
2022/07/15 05:29:55;;;;;;;4.92;2.67;;;25.00;70.30;;;;;;1956735;72;21028;-61
2022/07/15 05:32:25;;;;;;;3.65;2.45;;;25.00;70.10;;;;;;1956704;72;21029;-61
2022/07/15 05:34:56;;;;;;;3.85;2.20;;;25.00;69.90;;;;;;1956730;73;21005;-61
2022/07/15 05:37:28;;;;;;;3.83;2.25;;;25.00;69.90;;;;;;1956716;72;21095;-61
2022/07/15 05:39:59;;;;;;;5.37;2.65;;;25.00;70.00;;;;;;1899317;73;21049;-61
2022/07/15 05:42:30;;;;;;;3.87;2.60;;;24.90;69.90;;;;;;1896484;75;21184;-61
2022/07/15 05:45:00;;;;;;;2.75;2.55;;;24.90;70.30;;;;;;1893354;76;21015;-61
2022/07/15 05:47:31;;;;;;;4.20;2.62;;;24.90;70.10;;;;;;1930793;74;21082;-61
2022/07/15 05:50:00;;;;;;;5.30;2.60;;;25.00;70.20;;;;;;1893385;75;21035;-61
2022/07/15 05:52:32;;;;;;;4.12;2.33;;;25.10;70.30;;;;;;1930338;74;21048;-61
2022/07/15 05:55:04;;;;;;;3.47;2.33;;;25.30;69.90;;;;;;1892657;74;21089;-61
2022/07/15 05:57:34;;;;;;;8.73;3.25;;;25.30;69.30;;;;;;1930651;73;21008;-61
2022/07/15 06:00:04;;;;;;;5.55;2.60;;;25.30;69.00;;;;;;1893147;74;21035;-61
2022/07/15 06:02:35;;;;;;;3.87;2.47;;;25.30;68.40;;;;;;1928768;74;21004;-61
2022/07/15 06:05:05;;;;;;;5.85;3.25;;;25.30;68.10;;;;;;1893386;74;21063;-61
2022/07/15 06:07:35;;;;;;;6.45;3.47;;;25.30;68.30;;;;;;1930677;73;21140;-61
2022/07/15 06:10:07;;;;;;;3.12;2.52;;;25.30;68.60;;;;;;1930552;74;21040;-61
2022/07/15 06:12:36;;;;;;;3.60;3.27;;;25.40;68.70;;;;;;1930448;74;21513;-61
2022/07/15 06:15:06;;;;;;;4.50;2.92;;;25.40;68.40;;;;;;1893229;75;21112;-61
2022/07/15 06:17:36;;;;;;;3.02;2.50;;;25.60;68.30;;;;;;1930627;73;21016;-61
2022/07/15 06:20:07;;;;;;;5.70;2.60;;;25.70;67.90;;;;;;1893334;75;21050;-61
2022/07/15 06:22:37;;;;;;;5.25;2.80;;;25.80;67.40;;;;;;1930641;73;20996;-61
2022/07/15 06:25:08;;;;;;;5.37;3.15;;;26.00;67.40;;;;;;1893380;74;21043;-61
2022/07/15 06:27:37;;;;;;;5.30;2.55;;;26.10;66.80;;;;;;1930759;73;21082;-61
2022/07/15 06:30:08;;;;;;;7.12;2.62;;;26.20;65.90;;;;;;1893209;76;21008;-62
2022/07/15 06:32:37;;;;;;;5.62;2.42;;;26.30;65.50;;;;;;1930623;73;21016;-62
2022/07/15 06:35:07;;;;;;;3.22;2.72;;;26.40;65.30;;;;;;1893307;74;21047;-62
2022/07/15 06:37:37;;;;;;;5.12;3.20;;;26.40;65.20;;;;;;1930652;73;21040;-62
2022/07/15 06:40:09;;;;;;;3.35;3.00;;;26.40;64.80;;;;;;1893341;74;21513;-62
2022/07/15 06:42:39;;;;;;;7.67;3.30;;;26.40;64.80;;;;;;1930685;73;21088;-62
2022/07/15 06:45:11;;;;;;;6.62;3.50;;;26.40;64.80;;;;;;1893311;76;21125;-62
2022/07/15 06:47:43;;;;;;;6.35;3.33;;;26.50;63.40;;;;;;1930581;74;21024;-62
2022/07/15 06:50:13;;;;;;;10.13;3.33;;;26.50;62.90;;;;;;1893076;75;21102;-62
2022/07/15 06:52:44;;;;;;;3.75;2.90;;;26.50;62.80;;;;;;1930420;73;21023;-63
2022/07/15 06:55:14;;;;;;;3.45;2.60;;;26.50;62.20;;;;;;1893432;74;21007;-62
2022/07/15 06:57:47;;;;;;;4.10;2.72;;;26.60;62.50;;;;;;1930934;74;21024;-62
2022/07/15 07:00:19;;;;;;;6.28;4.10;;;26.60;61.80;;;;;;1866741;74;21131;-62
2022/07/15 07:02:48;;;;;;;6.00;2.98;;;26.60;61.90;;;;;;1930884;73;21056;-62
2022/07/15 07:05:18;;;;;;;5.12;3.00;;;26.50;62.10;;;;;;1931091;73;21084;-62
2022/07/15 07:07:48;;;;;;;6.70;4.00;;;26.60;61.70;;;;;;1931076;74;21503;-62
2022/07/15 07:10:17;;;;;;;7.08;3.10;;;26.60;60.90;;;;;;1930961;74;21039;-62
2022/07/15 07:12:47;;;;;;;3.27;2.98;;;26.60;61.10;;;;;;1930958;73;21036;-62
2022/07/15 07:15:17;;;;;;;4.97;2.92;;;26.70;62.00;;;;;;1930846;73;21016;-62
2022/07/15 07:17:47;;;;;;;5.15;2.50;;;26.80;60.50;;;;;;1930922;73;21031;-62
2022/07/15 07:20:16;;;;;;;4.53;2.67;;;26.90;60.60;;;;;;1930951;74;21016;-62
2022/07/15 07:22:46;;;;;;;6.25;3.02;;;26.80;60.30;;;;;;1930957;74;21090;-62
2022/07/15 07:25:15;;;;;;;3.52;2.33;;;26.90;60.10;;;;;;1930825;74;21009;-62
2022/07/15 07:27:44;;;;;;;6.20;2.90;;;26.80;59.80;;;;;;1930754;73;21036;-62
2022/07/15 07:30:14;;;;;;;5.20;3.12;;;26.80;60.30;;;;;;1930890;73;21512;-62
2022/07/15 07:32:43;;;;;;;3.35;2.62;;;26.90;60.50;;;;;;1930928;74;21090;-62
2022/07/15 07:35:12;;;;;;;4.95;2.80;;;27.00;60.10;;;;;;1930870;73;21148;-62
2022/07/15 07:37:42;;;;;;;9.73;3.30;;;27.10;60.10;;;;;;1930896;74;20992;-62
2022/07/15 07:40:11;;;;;;;4.72;2.60;;;27.20;59.70;;;;;;1930712;73;21044;-62
2022/07/15 07:42:41;;;;;;;6.08;4.85;;;27.20;58.90;;;;;;1930701;74;21121;-62
2022/07/15 07:45:11;;;;;;;6.15;2.60;;;27.20;58.90;;;;;;1930619;74;21090;-62
2022/07/15 07:47:41;;;;;;;3.98;2.83;;;27.20;58.40;;;;;;1930980;74;20988;-62
2022/07/15 07:50:11;;;;;;;13.40;3.27;;;27.10;58.30;;;;;;1930799;74;21067;-61
2022/07/15 07:52:41;;;;;;;9.88;3.52;;;27.20;58.10;;;;;;1930699;74;20996;-61
2022/07/15 07:55:11;;;;;;;8.55;3.55;;;27.20;57.90;;;;;;1930802;73;21028;-61
2022/07/15 07:57:52;;;;;;;2.90;2.20;;;27.10;58.00;;;;;;1930778;73;21024;-61
2022/07/15 08:00:22;;;;;;;6.85;2.72;;;27.20;57.30;;;;;;1930800;73;21111;-61
2022/07/15 08:02:52;;;;;;;9.48;3.22;;;27.20;57.40;;;;;;1930803;73;21117;-61
2022/07/15 08:05:21;;;;;;;3.00;2.80;;;27.20;58.00;;;;;;1930827;73;21023;-61
2022/07/15 08:07:51;;;;;;;6.78;2.50;;;27.30;57.60;;;;;;1930854;73;21086;-61
2022/07/15 08:10:21;;;;;;;3.75;2.35;;;27.40;57.10;;;;;;1930862;74;21048;-61
2022/07/15 08:12:50;;;;;;;4.50;2.27;;;27.60;56.70;;;;;;1930747;73;21016;-61
2022/07/15 08:15:19;;;;;;;7.12;2.45;;;27.60;55.20;;;;;;1930765;73;21028;-61
2022/07/15 08:17:55;;;;;;;6.28;3.05;;;27.80;55.80;;;;;;1930790;73;21090;-61
2022/07/15 08:20:29;;;;;;;10.68;5.90;;;27.80;54.20;;;;;;1941474;71;21129;-61
2022/07/15 08:22:59;;;;;;;4.25;2.40;;;27.90;53.10;;;;;;1933958;73;21028;-61
2022/07/15 08:25:36;;;;;;;3.08;2.30;;;28.00;53.60;;;;;;1933086;74;21012;-61
2022/07/15 08:28:11;;;;;;;2.87;2.40;;;28.20;53.80;;;;;;1900896;73;21145;-62
2022/07/15 08:30:41;;;;;;;3.50;1.85;;;28.10;55.00;;;;;;1896314;76;21114;-69
2022/07/15 08:33:10;;;;;;;2.72;2.33;;;28.00;55.30;;;;;;1896373;74;21114;-59
2022/07/15 08:35:41;;;;;;;2.47;2.25;;;27.90;55.30;;;;;;1896202;76;21012;-58
2022/07/15 08:38:11;;;;;;;3.80;2.05;;;27.80;55.80;;;;;;1896532;75;21031;-59
2022/07/15 08:40:41;;;;;;;4.12;2.08;;;27.80;56.60;;;;;;1896302;76;21027;-63
2022/07/15 08:43:11;;;;;;;5.15;2.22;;;27.90;55.70;;;;;;1896013;76;21039;-61
2022/07/15 08:45:43;;;;;;;3.35;3.02;;;28.00;54.90;;;;;;1896205;75;21111;-63
2022/07/15 08:48:13;;;;;;;5.80;3.02;;;28.00;54.60;;;;;;1896328;76;21110;-62
2022/07/15 08:50:43;;;;;;;3.33;1.98;;;28.10;54.60;;;;;;1895965;75;21071;-60
2022/07/15 08:53:13;;;;;;;4.12;2.15;;;28.10;54.10;;;;;;1896231;74;21173;-61
2022/07/15 08:55:42;;;;;;;5.87;2.62;;;28.00;55.10;;;;;;1896290;76;21082;-63
2022/07/15 08:58:12;;;;;;;7.42;4.42;;;28.10;54.90;;;;;;1895847;76;21106;-62
2022/07/15 09:00:41;;;;;;;12.13;2.77;;;28.20;54.60;;;;;;1896023;76;21051;-61
2022/07/15 09:03:13;;;;;;;5.03;2.50;;;28.30;54.60;;;;;;1896133;76;21036;-62
2022/07/15 09:05:41;;;;;;;4.50;2.40;;;28.40;53.60;;;;;;1896148;76;21560;-66
2022/07/15 09:08:16;;;;;;;9.03;2.50;;;28.50;53.50;;;;;;1896112;75;21028;-60
2022/07/15 09:10:57;;;;;;;8.78;2.33;;;28.60;53.20;;;;;;1896177;76;21091;-61
2022/07/15 09:13:38;;;;;;;4.72;2.17;;;28.70;53.10;;;;;;1896145;76;21114;-64
2022/07/15 09:16:10;;;;;;;5.25;2.25;;;28.80;53.00;;;;;;1895946;76;21173;-61
2022/07/15 09:18:41;;;;;;;4.10;2.40;;;28.80;52.50;;;;;;1896041;75;21184;-64
2022/07/15 09:21:22;;;;;;;3.05;2.12;;;28.80;52.80;;;;;;1896022;76;21047;-65
2022/07/15 09:23:52;;;;;;;4.75;2.37;;;28.90;52.70;;;;;;1896144;76;21015;-62
2022/07/15 09:26:35;;;;;;;3.55;2.12;;;28.90;52.90;;;;;;1896182;76;21192;-63
2022/07/15 09:33:34;;;;;;;3.50;2.12;;;29.00;52.60;;;;;;1879183;76;21174;-59
2022/07/15 09:34:25;;;;;;;3.70;1.95;;;29.10;51.90;;;;;;1883133;76;21092;-60
2022/07/15 09:36:57;;;;;;;5.95;2.52;;;29.10;51.90;;;;;;1883268;76;21029;-62
2022/07/15 09:39:26;;;;;;;8.63;2.02;;;29.10;51.90;;;;;;1883075;76;21029;-61
2022/07/15 09:41:58;;;;;;;3.95;2.27;;;29.10;51.70;;;;;;1883011;75;21076;-61
2022/07/15 09:44:26;;;;;;;3.27;2.33;;;28.90;52.00;;;;;;1883284;76;21507;-61
2022/07/15 09:46:59;;;;;;;3.52;2.25;;;28.90;52.20;;;;;;1883159;76;21147;-59
2022/07/15 09:49:32;;;;;;;5.55;2.35;;;28.70;52.40;;;;;;1882965;76;21130;-58
2022/07/15 09:52:07;;;;;;;5.08;2.00;;;28.70;53.60;;;;;;1883240;76;21475;-58
2022/07/15 09:54:42;;;;;;;2.77;2.17;;;28.70;52.80;;;;;;1883082;76;21099;-55
2022/07/15 09:57:15;;;;;;;5.97;3.90;;;28.90;52.70;;;;;;1881164;76;21099;-57
2022/07/15 09:59:45;;;;;;;6.47;2.37;;;29.10;52.00;;;;;;1878699;76;21036;-61
2022/07/15 10:02:14;;;;;;;11.43;3.50;;;29.10;52.00;;;;;;1880280;76;21026;-56
2022/07/15 10:04:46;;;;;;;5.03;2.45;;;29.10;52.10;;;;;;1877031;76;21112;-59
2022/07/15 10:07:15;;;;;;;8.63;2.50;;;29.10;51.70;;;;;;1877203;76;21030;-64
2022/07/15 10:09:45;;;;;;;2.22;2.02;;;28.90;52.20;;;;;;1876956;76;21030;-65
2022/07/15 10:12:19;;;;;;;6.10;2.30;;;28.90;52.10;;;;;;1879776;74;21038;-66
2022/07/15 10:15:26;;;;;;;2.30;2.10;;;28.80;51.70;;;;;;1870418;76;21015;-63
2022/07/15 10:18:13;;;;;;;4.78;2.27;;;28.70;52.20;;;;;;1869756;76;21122;-62
2022/07/15 10:21:08;;;;;;;5.05;2.52;;;28.60;52.20;;;;;;1848612;76;21109;-62
2022/07/15 10:23:42;;;;;;;8.37;3.20;;;28.60;52.40;;;;;;1870042;77;21023;-61
2022/07/15 10:26:34;;;;;;;8.08;2.55;;;28.70;52.40;;;;;;1869963;76;21184;-62
2022/07/15 10:29:11;;;;;;;9.83;2.60;;;28.90;52.30;;;;;;1889033;73;21131;-58
2022/07/15 10:31:42;;;;;;;13.88;2.70;;;29.10;51.70;;;;;;1893007;73;22034;-62
2022/07/15 10:34:17;;;;;;;10.13;2.37;;;29.20;51.90;;;;;;1889205;74;21464;-59
2022/07/15 10:36:57;;;;;;;3.85;2.27;;;29.40;51.40;;;;;;1905433;74;21151;-63
2022/07/15 10:39:26;;;;;;;5.53;2.30;;;29.50;51.10;;;;;;1909179;75;21061;-64
2022/07/15 10:42:04;;;;;;;5.17;2.25;;;29.60;50.50;;;;;;1906260;75;21039;-61
2022/07/15 10:44:40;;;;;;;4.30;2.37;;;29.60;50.50;;;;;;1897458;75;21031;-63
2022/07/15 10:47:18;;;;;;;5.12;2.05;;;29.70;50.20;;;;;;1896425;75;21542;-62
2022/07/15 10:49:50;;;;;;;6.80;2.22;;;29.70;50.00;;;;;;1897318;75;21132;-62
2022/07/15 10:52:28;;;;;;;4.15;2.15;;;29.60;49.90;;;;;;1897644;75;21098;-60
2022/07/15 10:55:00;;;;;;;7.70;2.45;;;29.60;50.30;;;;;;1897625;75;21019;-63
2022/07/15 10:57:50;;;;;;;5.35;2.12;;;29.60;50.40;;;;;;1897844;75;21015;-61
2022/07/15 11:00:37;;;;;;;5.05;2.52;;;29.70;50.20;;;;;;1898238;75;21014;-62
2022/07/15 11:03:13;;;;;;;4.03;3.15;;;29.70;49.80;;;;;;1897054;75;21175;-63
2022/07/15 11:05:57;;;;;;;6.83;2.75;;;29.60;49.70;;;;;;1896947;75;21097;-63
2022/07/15 11:08:40;;;;;;;10.10;6.45;;;29.60;49.70;;;;;;1865053;72;21075;-62
2022/07/15 11:11:18;;;;;;;7.70;2.55;;;29.60;49.90;;;;;;1905804;75;21611;-62
2022/07/15 11:13:49;;;;;;;3.85;2.00;;;29.60;50.00;;;;;;1905629;75;21525;-62
2022/07/15 11:16:20;;;;;;;6.22;2.15;;;29.50;50.20;;;;;;1905506;75;21137;-61
2022/07/15 11:18:51;;;;;;;11.18;2.83;;;29.60;50.20;;;;;;1904873;75;21486;-62
2022/07/15 11:21:21;;;;;;;6.90;2.17;;;29.60;50.50;;;;;;1905736;75;21502;-62
2022/07/15 11:23:53;;;;;;;2.60;2.10;;;29.60;49.60;;;;;;1905577;75;21027;-62
2022/07/15 11:26:23;;;;;;;3.55;2.00;;;29.60;49.60;;;;;;1905716;75;21071;-62
2022/07/15 11:29:01;;;;;;;5.55;2.05;;;29.60;49.50;;;;;;1905721;75;21410;-62
2022/07/15 11:31:28;;;;;;;3.50;1.90;;;29.60;49.60;;;;;;1904770;75;21094;-62
2022/07/15 11:33:58;;;;;;;5.10;2.90;;;29.60;49.30;;;;;;1905470;75;21028;-61
2022/07/15 11:36:28;;;;;;;3.98;2.30;;;29.60;49.40;;;;;;1905564;75;21037;-61
2022/07/15 11:38:58;;;;;;;3.67;2.02;;;29.60;49.10;;;;;;1905426;75;21039;-61
2022/07/15 11:44:29;;;;;;;2.80;1.95;;;29.60;49.10;;;;;;1905609;75;21212;-61
2022/07/15 11:47:01;;;;;;;4.22;2.33;;;29.60;49.00;;;;;;1905762;75;21048;-62
2022/07/15 11:49:43;;;;;;;4.00;1.70;;;29.60;49.30;;;;;;1905707;75;21024;-61
2022/07/15 11:52:11;;;;;;;4.35;2.15;;;29.70;49.00;;;;;;1904799;75;21040;-61
2022/07/15 11:54:42;;;;;;;3.92;2.10;;;29.80;49.10;;;;;;1903541;75;21048;-61
2022/07/15 11:57:13;;;;;;;6.83;2.22;;;29.90;48.90;;;;;;1905641;75;21109;-61
2022/07/15 11:59:43;;;;;;;7.70;2.70;;;30.00;48.50;;;;;;1905655;75;21031;-61
2022/07/15 12:02:14;;;;;;;4.17;2.65;;;30.00;47.50;;;;;;1904802;75;21513;-61
2022/07/15 12:04:44;;;;;;;4.20;2.70;;;30.00;47.60;;;;;;1905773;75;21028;-61
2022/07/15 12:07:14;;;;;;;3.10;2.22;;;30.00;47.90;;;;;;1904081;75;21137;-61
2022/07/15 12:09:54;;;;;;;4.62;2.33;;;30.00;47.40;;;;;;1896888;76;21103;-61
2022/07/15 12:12:23;;;;;;;6.60;2.20;;;30.10;47.50;;;;;;1896967;76;21039;-61
2022/07/15 12:14:53;;;;;;;5.83;2.25;;;30.10;47.20;;;;;;1897025;76;21068;-61
2022/07/15 12:17:22;;;;;;;2.95;2.17;;;30.10;47.00;;;;;;1896902;76;21063;-61
2022/07/15 12:19:58;;;;;;;5.75;2.30;;;30.10;46.80;;;;;;1896925;76;21052;-62
2022/07/15 12:22:27;;;;;;;8.08;3.92;;;30.00;46.90;;;;;;1896862;76;21072;-61
2022/07/15 12:24:56;;;;;;;9.38;2.55;;;30.00;47.40;;;;;;1896756;76;21028;-62
2022/07/15 12:27:37;;;;;;;5.62;2.40;;;30.10;47.20;;;;;;1896765;76;21032;-62
2022/07/15 12:30:08;;;;;;;3.12;2.02;;;30.20;47.10;;;;;;1896781;76;21036;-62
2022/07/15 12:32:38;;;;;;;3.27;1.67;;;30.10;46.70;;;;;;1896875;76;21028;-62
2022/07/15 12:35:18;;;;;;;4.90;2.30;;;30.00;47.30;;;;;;1896782;75;21118;-62
2022/07/15 12:37:51;;;;;;;6.47;2.10;;;30.00;46.80;;;;;;1889804;74;21054;-61
2022/07/15 12:40:25;;;;;;;5.20;1.80;;;30.00;46.80;;;;;;1895043;75;21027;-61
2022/07/15 12:42:54;;;;;;;7.67;2.10;;;30.00;46.80;;;;;;1895068;75;21007;-62
2022/07/15 12:45:31;;;;;;;2.35;1.92;;;30.10;46.90;;;;;;1894716;76;21074;-62
2022/07/15 12:48:09;;;;;;;3.95;2.27;;;30.20;47.00;;;;;;1894789;76;21109;-63
2022/07/15 12:50:50;;;;;;;3.37;2.60;;;30.30;46.80;;;;;;1894553;76;21031;-62
2022/07/15 12:53:27;;;;;;;4.53;2.35;;;30.40;46.50;;;;;;1851660;76;21196;-61
2022/07/15 12:56:01;;;;;;;4.62;1.80;;;30.40;46.30;;;;;;1864093;77;21064;-61
2022/07/15 12:58:32;;;;;;;5.55;2.15;;;30.40;46.40;;;;;;1864075;77;21050;-62
2022/07/15 13:01:09;;;;;;;3.83;2.20;;;30.50;46.40;;;;;;1864119;77;21022;-62
2022/07/15 13:03:39;;;;;;;4.12;1.75;;;30.50;46.00;;;;;;1864020;76;21046;-62
2022/07/15 13:06:11;;;;;;;3.67;2.00;;;30.50;46.50;;;;;;1864042;76;21003;-63
2022/07/15 13:08:41;;;;;;;4.25;2.17;;;30.60;46.10;;;;;;1864195;77;21027;-64
2022/07/15 13:11:10;;;;;;;11.00;2.33;;;30.60;45.80;;;;;;1863983;76;21006;-64
2022/07/15 13:13:42;;;;;;;5.15;2.15;;;30.60;45.80;;;;;;1863995;77;21085;-64
2022/07/15 13:16:12;;;;;;;8.80;2.37;;;30.60;46.00;;;;;;1864027;77;21034;-64
2022/07/15 13:18:42;;;;;;;4.33;1.80;;;30.60;46.10;;;;;;1864012;77;21039;-64
2022/07/15 13:21:11;;;;;;;3.85;1.90;;;30.70;45.80;;;;;;1864087;77;21039;-63